createdAt,value
2023-04-01T00:01:23.859Z,98551.25
2023-04-01T00:03:50.919Z,98548.41
2023-04-01T00:06:17.555Z,98548.06
2023-04-01T00:08:44.214Z,98551.69
2023-04-01T00:11:10.650Z,98548.41
2023-04-01T00:13:37.112Z,98539.13
2023-04-01T00:16:09.734Z,98532.75
2023-04-01T00:18:44.238Z,98531.22
2023-04-01T00:21:10.892Z,98543.50
2023-04-01T00:23:37.376Z,98530.03
2023-04-01T00:26:03.902Z,98538.81
2023-04-01T00:28:30.328Z,98534.03
2023-04-01T00:30:56.756Z,98540.88
2023-04-01T00:33:23.163Z,98542.81
2023-04-01T00:35:49.800Z,98537.22
2023-04-01T00:38:18.075Z,98537.66
2023-04-01T00:40:44.518Z,98538.09
2023-04-01T00:43:11.133Z,98540.44
2023-04-01T00:45:37.669Z,98541.59
2023-04-01T00:48:04.201Z,98558.28
2023-04-01T00:50:31.017Z,98542.38
2023-04-01T00:52:57.443Z,98543.91
2023-04-01T00:55:23.929Z,98547.88
2023-04-01T00:57:50.358Z,98540.22
2023-04-01T01:00:17.044Z,98533.44
2023-04-01T01:02:43.534Z,98548.62
2023-04-01T01:05:09.982Z,98545.78
2023-04-01T01:07:36.414Z,98537.84
2023-04-01T01:10:02.926Z,98543.00
2023-04-01T01:12:29.355Z,98538.56
2023-04-01T01:14:55.887Z,98535.88
2023-04-01T01:17:22.394Z,98541.56
2023-04-01T01:19:49.532Z,98540.63
2023-04-01T01:22:16.216Z,98535.59
2023-04-01T01:24:42.666Z,98534.38
2023-04-01T01:27:09.086Z,98528.81
2023-04-01T01:29:35.708Z,98537.63
2023-04-01T01:32:02.365Z,98533.62
2023-04-01T01:34:28.788Z,98527.69
2023-04-01T01:36:55.206Z,98535.31
2023-04-01T01:39:22.063Z,98536.91
2023-04-01T01:41:50.543Z,98539.25
2023-04-01T01:44:16.974Z,98538.75
2023-04-01T01:46:43.515Z,98541.59
2023-04-01T01:49:09.954Z,98545.47
2023-04-01T01:51:36.413Z,98540.66
2023-04-01T01:54:02.825Z,98541.50
2023-04-01T01:56:29.257Z,98549.91
2023-04-01T01:58:55.678Z,98545.44
2023-04-01T02:01:22.122Z,98539.53
2023-04-01T02:03:48.594Z,98539.13
2023-04-01T02:06:15.038Z,98541.91
2023-04-01T02:08:41.568Z,98545.91
2023-04-01T02:11:08.020Z,98547.09
2023-04-01T02:13:34.488Z,98548.31
2023-04-01T02:16:01.427Z,98533.09
2023-04-01T02:18:27.857Z,98530.41
2023-04-01T02:20:54.508Z,98533.91
2023-04-01T02:23:21.150Z,98538.31
2023-04-01T02:25:47.572Z,98536.47
2023-04-01T02:28:14.108Z,98540.72
2023-04-01T02:30:41.308Z,98539.88
2023-04-01T02:33:07.771Z,98543.91
2023-04-01T02:35:34.345Z,98546.47
2023-04-01T02:38:00.903Z,98545.97
2023-04-01T02:40:27.336Z,98549.12
2023-04-01T02:42:53.794Z,98548.31
2023-04-01T02:45:20.254Z,98548.38
2023-04-01T02:47:46.757Z,98551.47
2023-04-01T02:50:13.220Z,98551.47
2023-04-01T02:52:39.698Z,98552.28
2023-04-01T02:55:06.226Z,98556.69
2023-04-01T02:57:32.732Z,98554.34
2023-04-01T02:59:59.228Z,98559.41
2023-04-01T03:02:25.818Z,98555.44
2023-04-01T03:04:52.308Z,98561.50
2023-04-01T03:07:18.750Z,98561.06
2023-04-01T03:09:45.152Z,98566.50
2023-04-01T03:12:11.602Z,98566.16
2023-04-01T03:14:38.016Z,98580.91
2023-04-01T03:17:04.429Z,98571.38
2023-04-01T03:19:31.032Z,98571.34
2023-04-01T03:21:57.478Z,98565.84
2023-04-01T03:24:23.930Z,98562.97
2023-04-01T03:26:50.439Z,98569.75
2023-04-01T03:29:17.059Z,98576.66
2023-04-01T03:31:43.525Z,98573.41
2023-04-01T03:34:10.098Z,98575.44
2023-04-01T03:36:36.549Z,98563.22
2023-04-01T03:39:04.264Z,98568.44
2023-04-01T03:41:31.934Z,98572.88
2023-04-01T03:43:58.462Z,98570.88
2023-04-01T03:46:24.976Z,98579.25
2023-04-01T03:48:51.504Z,98586.44
2023-04-01T03:51:17.957Z,98584.03
2023-04-01T03:53:44.383Z,98584.81
2023-04-01T03:56:10.868Z,98590.41
2023-04-01T03:58:37.277Z,98583.69
2023-04-01T04:01:03.722Z,98588.59
2023-04-01T04:03:30.273Z,98588.03
2023-04-01T04:05:57.629Z,98586.47
2023-04-01T04:08:24.094Z,98590.16
2023-04-01T04:10:50.715Z,98596.84
2023-04-01T04:13:17.211Z,98596.09
2023-04-01T04:15:43.651Z,98599.28
2023-04-01T04:18:10.134Z,98595.38
2023-04-01T04:20:36.911Z,98594.09
2023-04-01T04:23:03.383Z,98609.66
2023-04-01T04:25:29.799Z,98601.22
2023-04-01T04:27:56.261Z,98602.53
2023-04-01T04:30:22.693Z,98616.50
2023-04-01T04:32:49.153Z,98615.56
2023-04-01T04:35:15.775Z,98622.37
2023-04-01T04:37:42.226Z,98612.50
2023-04-01T04:40:08.656Z,98622.84
2023-04-01T04:42:35.086Z,98616.84
2023-04-01T04:45:01.506Z,98630.78
2023-04-01T04:47:28.023Z,98625.72
2023-04-01T04:49:54.458Z,98632.47
2023-04-01T04:52:20.880Z,98634.00
2023-04-01T04:54:47.322Z,98626.50
2023-04-01T04:57:13.794Z,98629.31
2023-04-01T04:59:40.264Z,98625.34
2023-04-01T05:02:06.699Z,98629.28
2023-04-01T05:04:33.136Z,98634.06
2023-04-01T05:06:59.545Z,98632.72
2023-04-01T05:09:25.988Z,98635.50
2023-04-01T05:11:52.434Z,98642.03
2023-04-01T05:14:18.846Z,98635.94
2023-04-01T05:16:45.359Z,98639.50
2023-04-01T05:19:11.883Z,98640.94
2023-04-01T05:21:38.334Z,98640.09
2023-04-01T05:24:04.740Z,98646.34
2023-04-01T05:26:31.817Z,98656.44
2023-04-01T05:28:58.224Z,98649.66
2023-04-01T05:31:25.356Z,98653.19
2023-04-01T05:33:51.838Z,98656.03
2023-04-01T05:36:18.296Z,98658.53
2023-04-01T05:38:47.023Z,98649.56
2023-04-01T05:41:13.466Z,98654.78
2023-04-01T05:43:39.938Z,98653.59
2023-04-01T05:46:06.461Z,98657.59
2023-04-01T05:48:32.951Z,98660.19
2023-04-01T05:50:59.368Z,98663.31
2023-04-01T05:53:25.918Z,98662.22
2023-04-01T05:55:52.341Z,98664.16
2023-04-01T05:58:18.811Z,98669.41
2023-04-01T06:00:46.519Z,98665.41
2023-04-01T06:03:13.231Z,98666.44
2023-04-01T06:05:39.732Z,98669.69
2023-04-01T06:08:06.145Z,98664.56
2023-04-01T06:10:32.562Z,98671.22
2023-04-01T06:12:59.004Z,98673.38
2023-04-01T06:15:25.471Z,98665.06
2023-04-01T06:17:51.928Z,98664.31
2023-04-01T06:20:19.191Z,98668.56
2023-04-01T06:22:45.736Z,98667.97
2023-04-01T06:25:12.208Z,98674.13
2023-04-01T06:27:38.668Z,98677.75
2023-04-01T06:30:05.354Z,98680.50
2023-04-01T06:32:31.855Z,98681.44
2023-04-01T06:34:58.285Z,98678.59
2023-04-01T06:37:24.724Z,98685.53
2023-04-01T06:39:51.535Z,98682.09
2023-04-01T06:42:18.011Z,98679.78
2023-04-01T06:44:44.461Z,98688.59
2023-04-01T06:47:11.051Z,98687.75
2023-04-01T06:49:37.535Z,98694.12
2023-04-01T06:52:03.950Z,98693.75
2023-04-01T06:54:30.396Z,98686.66
2023-04-01T06:56:58.511Z,98689.56
2023-04-01T06:59:24.947Z,98687.34
2023-04-01T07:01:51.434Z,98693.50
2023-04-01T07:04:17.889Z,98693.56
2023-04-01T07:06:44.311Z,98686.66
2023-04-01T07:09:10.728Z,98694.25
2023-04-01T07:11:37.199Z,98689.59
2023-04-01T07:14:03.666Z,98699.53
2023-04-01T07:16:30.608Z,98695.66
2023-04-01T07:18:57.054Z,98699.25
2023-04-01T07:21:23.481Z,98694.84
2023-04-01T07:23:49.908Z,98703.75
2023-04-01T07:26:16.501Z,98701.31
2023-04-01T07:28:43.818Z,98716.78
2023-04-01T07:31:10.331Z,98697.50
2023-04-01T07:33:36.803Z,98706.78
2023-04-01T07:36:03.275Z,98705.16
2023-04-01T07:38:29.798Z,98710.00
2023-04-01T07:40:56.281Z,98714.38
2023-04-01T07:43:22.743Z,98708.06
2023-04-01T07:45:49.152Z,98715.72
2023-04-01T07:48:15.566Z,98710.88
2023-04-01T07:50:42.005Z,98715.28
2023-04-01T07:53:08.514Z,98716.84
2023-04-01T07:55:35.179Z,98716.69
2023-04-01T07:58:01.820Z,98723.59
2023-04-01T08:00:28.225Z,98724.44
2023-04-01T08:02:54.699Z,98725.69
2023-04-01T08:05:21.472Z,98726.91
2023-04-01T08:07:47.998Z,98738.47
2023-04-01T08:10:14.423Z,98726.13
2023-04-01T08:12:40.914Z,98743.66
2023-04-01T08:15:07.349Z,98731.44
2023-04-01T08:17:33.850Z,98730.22
2023-04-01T08:20:00.313Z,98744.13
2023-04-01T08:22:26.739Z,98734.91
2023-04-01T08:24:53.185Z,98736.97
2023-04-01T08:27:19.603Z,98739.50
2023-04-01T08:29:46.723Z,98742.00
2023-04-01T08:32:13.349Z,98738.56
2023-04-01T08:34:39.898Z,98739.53
2023-04-01T08:37:06.408Z,98743.63
2023-04-01T08:39:32.878Z,98739.88
2023-04-01T08:48:09.850Z,98742.72
2023-04-01T08:50:36.408Z,98735.09
2023-04-01T08:53:04.863Z,98753.13
2023-04-01T08:55:31.599Z,98745.59
2023-04-01T08:57:58.322Z,98741.16
2023-04-01T09:00:24.747Z,98752.22
2023-04-01T09:02:51.410Z,98751.91
2023-04-01T09:05:17.980Z,98747.06
2023-04-01T09:07:44.524Z,98749.91
2023-04-01T09:10:11.141Z,98749.88
2023-04-01T09:12:38.812Z,98755.88
2023-04-01T09:15:05.631Z,98744.63
2023-04-01T09:17:32.181Z,98749.06
2023-04-01T09:19:58.650Z,98745.78
2023-04-01T09:22:25.079Z,98755.88
2023-04-01T09:24:51.562Z,98754.50
2023-04-01T09:27:17.988Z,98756.56
2023-04-01T09:29:44.396Z,98750.59
2023-04-01T09:32:10.937Z,98753.94
2023-04-01T09:34:37.527Z,98756.19
2023-04-01T09:37:03.935Z,98751.81
2023-04-01T09:39:30.346Z,98753.06
2023-04-01T09:41:56.789Z,98755.47
2023-04-01T09:44:23.223Z,98756.19
2023-04-01T09:46:49.763Z,98753.91
2023-04-01T09:49:16.409Z,98758.37
2023-04-01T09:51:42.849Z,98755.94
2023-04-01T09:54:09.511Z,98756.44
2023-04-01T09:56:35.978Z,98759.56
2023-04-01T09:59:02.429Z,98761.16
2023-04-01T10:01:29.152Z,98756.81
2023-04-01T10:03:55.832Z,98768.38
2023-04-01T10:06:22.259Z,98763.50
2023-04-01T10:08:53.254Z,98759.59
2023-04-01T10:11:19.760Z,98766.72
2023-04-01T10:13:46.688Z,98767.94
2023-04-01T10:16:13.199Z,98773.97
2023-04-01T10:18:39.634Z,98775.59
2023-04-01T10:21:06.929Z,98776.47
2023-04-01T10:23:33.354Z,98781.97
2023-04-01T10:25:59.792Z,98777.62
2023-04-01T10:28:26.231Z,98776.72
2023-04-01T10:30:52.655Z,98768.84
2023-04-01T10:33:19.135Z,98778.38
2023-04-01T10:35:45.663Z,98772.00
2023-04-01T10:38:12.132Z,98766.69
2023-04-01T10:40:38.578Z,98779.16
2023-04-01T10:43:05.000Z,98772.31
2023-04-01T10:45:31.620Z,98770.03
2023-04-01T10:47:58.343Z,98773.16
2023-04-01T10:50:24.899Z,98769.50
2023-04-01T10:52:51.361Z,98777.09
2023-04-01T10:55:17.819Z,98769.03
2023-04-01T10:57:44.437Z,98774.00
2023-04-01T11:00:10.957Z,98771.25
2023-04-01T11:02:37.514Z,98778.84
2023-04-01T11:05:03.970Z,98769.66
2023-04-01T11:07:30.482Z,98775.28
2023-04-01T11:09:56.963Z,98772.50
2023-04-01T11:12:23.408Z,98776.13
2023-04-01T11:14:49.880Z,98768.94
2023-04-01T11:17:16.302Z,98778.97
2023-04-01T11:19:42.852Z,98771.75
2023-04-01T11:22:10.760Z,98780.94
2023-04-01T11:24:37.248Z,98781.31
2023-04-01T11:27:03.730Z,98775.28
2023-04-01T11:29:30.420Z,98774.56
2023-04-01T11:31:56.862Z,98769.78
2023-04-01T11:34:23.308Z,98775.75
2023-04-01T11:36:49.729Z,98784.59
2023-04-01T11:39:21.777Z,98787.31
2023-04-01T11:41:48.253Z,98788.16
2023-04-01T11:44:14.713Z,98787.28
2023-04-01T11:46:42.716Z,98786.56
2023-04-01T11:49:09.302Z,98777.34
2023-04-01T11:51:35.824Z,98780.19
2023-04-01T11:54:02.297Z,98782.97
2023-04-01T11:56:28.718Z,98796.53
2023-04-01T11:58:55.171Z,98790.84
2023-04-01T12:01:21.614Z,98785.62
2023-04-01T12:03:48.153Z,98786.44
2023-04-01T12:06:14.747Z,98777.75
2023-04-01T12:08:41.154Z,98777.75
2023-04-01T12:11:07.641Z,98782.91
2023-04-01T12:13:34.109Z,98780.87
2023-04-01T12:16:00.544Z,98783.69
2023-04-01T12:18:27.024Z,98784.03
2023-04-01T12:20:54.437Z,98782.41
2023-04-01T12:23:20.915Z,98780.41
2023-04-01T12:25:47.325Z,98790.53
2023-04-01T12:28:13.769Z,98784.97
2023-04-01T12:30:40.242Z,98773.37
2023-04-01T12:33:08.553Z,98774.97
2023-04-01T12:35:35.290Z,98786.56
2023-04-01T12:38:02.029Z,98783.78
2023-04-01T12:40:29.684Z,98778.56
2023-04-01T12:42:56.161Z,98779.28
2023-04-01T12:45:22.617Z,98785.75
2023-04-01T12:47:49.064Z,98785.66
2023-04-01T12:50:15.886Z,98790.44
2023-04-01T12:52:42.316Z,98788.87
2023-04-01T12:55:09.096Z,98792.97
2023-04-01T12:57:35.606Z,98795.78
2023-04-01T13:00:02.070Z,98793.34
2023-04-01T13:02:28.547Z,98799.78
2023-04-01T13:04:54.973Z,98802.22
2023-04-01T13:07:21.432Z,98795.81
2023-04-01T13:09:52.029Z,98801.03
2023-04-01T13:12:18.866Z,98797.41
2023-04-01T13:14:45.418Z,98797.78
2023-04-01T13:17:11.833Z,98794.13
2023-04-01T13:19:38.333Z,98801.69
2023-04-01T13:22:04.820Z,98803.75
2023-04-01T13:24:31.375Z,98803.72
2023-04-01T13:26:57.821Z,98802.13
2023-04-01T13:29:24.330Z,98800.53
2023-04-01T13:31:51.123Z,98796.50
2023-04-01T13:34:17.548Z,98804.59
2023-04-01T13:36:44.028Z,98814.22
2023-04-01T13:39:10.442Z,98805.37
2023-04-01T13:41:36.907Z,98808.59
2023-04-01T13:44:03.337Z,98808.53
2023-04-01T13:46:29.839Z,98798.91
2023-04-01T13:48:56.371Z,98811.41
2023-04-01T13:51:22.883Z,98802.56
2023-04-01T13:53:49.340Z,98812.56
2023-04-01T13:56:15.798Z,98816.19
2023-04-01T13:58:42.223Z,98806.13
2023-04-01T14:01:09.039Z,98795.66
2023-04-01T14:03:35.935Z,98810.75
2023-04-01T14:06:02.437Z,98803.72
2023-04-01T14:08:28.952Z,98810.50
2023-04-01T14:10:55.418Z,98802.97
2023-04-01T14:13:21.865Z,98808.94
2023-04-01T14:15:48.337Z,98801.34
2023-04-01T14:18:14.748Z,98796.16
2023-04-01T14:20:44.228Z,98813.44
2023-04-01T14:23:10.638Z,98824.22
2023-04-01T14:25:37.727Z,98813.00
2023-04-01T14:28:04.496Z,98818.22
2023-04-01T14:30:31.053Z,98821.00
2023-04-01T14:32:57.542Z,98825.38
2023-04-01T14:35:24.091Z,98822.16
2023-04-01T14:37:50.701Z,98825.41
2023-04-01T14:40:17.104Z,98832.22
2023-04-01T14:42:43.512Z,98834.28
2023-04-01T14:45:09.992Z,98823.03
2023-04-01T14:47:36.515Z,98825.41
2023-04-01T14:50:03.651Z,98832.63
2023-04-01T14:52:30.465Z,98838.25
2023-04-01T14:54:56.888Z,98831.47
2023-04-01T14:57:27.904Z,98839.88
2023-04-01T14:59:54.398Z,98836.66
2023-04-01T15:02:20.896Z,98850.25
2023-04-01T15:04:47.375Z,98849.87
2023-04-01T15:07:13.832Z,98847.06
2023-04-01T15:09:40.309Z,98847.88
2023-04-01T15:12:06.750Z,98849.50
2023-04-01T15:14:33.252Z,98856.28
2023-04-01T15:16:59.660Z,98861.47
2023-04-01T15:19:26.302Z,98858.66
2023-04-01T15:21:53.690Z,98860.69
2023-04-01T15:24:20.157Z,98863.09
2023-04-01T15:26:46.580Z,98879.87
2023-04-01T15:29:13.127Z,98868.22
2023-04-01T15:31:39.619Z,98876.66
2023-04-01T15:34:06.626Z,98877.91
2023-04-01T15:36:33.096Z,98881.06
2023-04-01T15:38:59.519Z,98883.88
2023-04-01T15:41:26.018Z,98882.63
2023-04-01T15:43:55.641Z,98888.25
2023-04-01T15:46:22.092Z,98884.56
2023-04-01T15:48:48.670Z,98888.66
2023-04-01T15:51:15.102Z,98892.94
2023-04-01T15:53:41.519Z,98888.59
2023-04-01T15:56:07.944Z,98895.84
2023-04-01T15:58:34.360Z,98890.59
2023-04-01T16:01:00.878Z,98894.50
2023-04-01T16:03:27.591Z,98894.16
2023-04-01T16:05:54.133Z,98895.63
2023-04-01T16:08:20.778Z,98902.81
2023-04-01T16:10:48.400Z,98910.66
2023-04-01T16:13:14.870Z,98905.13
2023-04-01T16:15:41.691Z,98910.72
2023-04-01T16:18:08.139Z,98908.06
2023-04-01T16:20:34.679Z,98916.06
2023-04-01T16:23:01.588Z,98916.53
2023-04-01T16:25:30.398Z,98914.47
2023-04-01T16:27:56.831Z,98919.19
2023-04-01T16:30:23.282Z,98920.00
2023-04-01T16:32:49.764Z,98918.25
2023-04-01T16:35:16.294Z,98927.13
2023-04-01T16:37:42.705Z,98924.66
2023-04-01T16:40:09.122Z,98938.78
2023-04-01T16:42:36.321Z,98936.78
2023-04-01T16:45:02.758Z,98939.13
2023-04-01T16:47:29.652Z,98939.88
2023-04-01T16:49:56.775Z,98948.87
2023-04-01T16:52:23.191Z,98944.53
2023-04-01T16:54:50.143Z,98960.78
2023-04-01T16:57:17.385Z,98958.38
2023-04-01T16:59:43.916Z,98968.22
2023-04-01T17:02:10.573Z,98961.91
2023-04-01T17:04:37.281Z,98971.06
2023-04-01T17:07:03.882Z,98975.84
2023-04-01T17:09:30.389Z,98969.88
2023-04-01T17:11:56.832Z,98984.78
2023-04-01T17:14:23.280Z,98992.34
2023-04-01T17:16:49.725Z,98986.28
2023-04-01T17:19:16.894Z,98989.50
2023-04-01T17:21:43.396Z,98990.44
2023-04-01T17:24:09.805Z,98996.91
2023-04-01T17:26:36.236Z,98999.22
2023-04-01T17:29:02.697Z,99013.56
2023-04-01T17:31:29.178Z,99000.78
2023-04-01T17:33:55.690Z,99002.37
2023-04-01T17:36:22.240Z,99011.13
2023-04-01T17:38:48.657Z,99009.09
2023-04-01T17:41:15.113Z,99023.03
2023-04-01T17:43:41.632Z,99018.22
2023-04-01T17:46:08.091Z,99030.97
2023-04-01T17:48:35.020Z,99031.03
2023-04-01T17:51:01.799Z,99033.00
2023-04-01T17:53:28.214Z,99036.56
2023-04-01T17:55:54.649Z,99038.56
2023-04-01T17:58:22.012Z,99036.19
2023-04-01T18:00:54.049Z,99046.09
2023-04-01T18:03:21.331Z,99044.47
2023-04-01T18:05:47.856Z,99040.13
2023-04-01T18:08:14.332Z,99046.00
2023-04-01T18:10:40.873Z,99041.25
2023-04-01T18:13:09.061Z,99051.66
2023-04-01T18:15:35.558Z,99047.16
2023-04-01T18:18:02.042Z,99051.53
2023-04-01T18:20:30.076Z,99054.28
2023-04-01T18:22:56.489Z,99052.31
2023-04-01T18:25:23.045Z,99061.78
2023-04-01T18:27:49.486Z,99064.53
2023-04-01T18:30:16.056Z,99061.78
2023-04-01T18:32:42.474Z,99063.37
2023-04-01T18:35:08.939Z,99067.28
2023-04-01T18:37:35.486Z,99084.09
2023-04-01T18:40:01.902Z,99071.59
2023-04-01T18:42:28.328Z,99081.63
2023-04-01T18:44:54.730Z,99090.16
2023-04-01T18:47:21.342Z,99081.53
2023-04-01T18:49:47.774Z,99081.53
2023-04-01T18:52:14.201Z,99093.00
2023-04-01T18:54:40.636Z,99096.56
2023-04-01T18:57:07.181Z,99099.31
2023-04-01T18:59:33.703Z,99103.00
2023-04-01T19:02:00.256Z,99106.88
2023-04-01T19:04:27.339Z,99110.88
2023-04-01T19:06:53.835Z,99108.22
2023-04-01T19:09:20.336Z,99112.25
2023-04-01T19:11:50.915Z,99106.28
2023-04-01T19:14:17.409Z,99118.25
2023-04-01T19:16:45.099Z,99119.78
2023-04-01T19:19:12.320Z,99121.28
2023-04-01T19:21:38.779Z,99132.84
2023-04-01T19:24:05.250Z,99128.06
2023-04-01T19:26:31.655Z,99124.50
2023-04-01T19:28:58.152Z,99131.13
2023-04-01T19:31:24.639Z,99131.44
2023-04-01T19:33:51.157Z,99132.59
2023-04-01T19:36:17.582Z,99134.03
2023-04-01T19:38:44.061Z,99136.16
2023-04-01T19:41:10.512Z,99138.69
2023-04-01T19:43:36.928Z,99144.38
2023-04-01T19:46:03.378Z,99142.63
2023-04-01T19:48:29.806Z,99142.66
2023-04-01T19:50:56.669Z,99146.56
2023-04-01T19:53:23.276Z,99151.88
2023-04-01T19:55:49.708Z,99164.72
2023-04-01T19:58:16.278Z,99160.50
2023-04-01T20:00:42.701Z,99171.47
2023-04-01T20:03:09.234Z,99165.84
2023-04-01T20:05:35.990Z,99172.66
2023-04-01T20:08:02.583Z,99176.19
2023-04-01T20:10:28.987Z,99181.38
2023-04-01T20:12:56.691Z,99193.63
2023-04-01T20:15:23.142Z,99194.09
2023-04-01T20:17:49.647Z,99190.59
2023-04-01T20:20:16.254Z,99197.03
2023-04-01T20:22:42.677Z,99190.66
2023-04-01T20:25:09.171Z,99204.62
2023-04-01T20:27:35.606Z,99203.84
2023-04-01T20:30:02.036Z,99201.37
2023-04-01T20:32:28.557Z,99203.19
2023-04-01T20:34:55.383Z,99205.22
2023-04-01T20:37:21.871Z,99215.09
2023-04-01T20:39:48.379Z,99218.25
2023-04-01T20:42:14.788Z,99220.31
2023-04-01T20:44:41.453Z,99215.87
2023-04-01T20:47:08.103Z,99216.69
2023-04-01T20:49:34.533Z,99228.31
2023-04-01T20:52:00.971Z,99217.53
2023-04-01T20:54:27.409Z,99224.47
2023-04-01T20:56:55.779Z,99232.88
2023-04-01T20:59:25.018Z,99231.72
2023-04-01T21:01:51.906Z,99229.44
2023-04-01T21:04:18.535Z,99232.94
2023-04-01T21:06:44.995Z,99243.81
2023-04-01T21:09:11.396Z,99238.13
2023-04-01T21:11:38.204Z,99233.34
2023-04-01T21:14:04.650Z,99241.78
2023-04-01T21:16:31.805Z,99248.16
2023-04-01T21:18:59.078Z,99257.66
2023-04-01T21:21:25.537Z,99258.16
2023-04-01T21:23:52.031Z,99257.03
2023-04-01T21:26:18.488Z,99254.63
2023-04-01T21:28:44.994Z,99258.28
2023-04-01T21:31:11.493Z,99267.22
2023-04-01T21:33:37.908Z,99266.56
2023-04-01T21:36:04.323Z,99270.03
2023-04-01T21:38:30.844Z,99273.03
2023-04-01T21:40:57.307Z,99276.63
2023-04-01T21:43:23.723Z,99282.66
2023-04-01T21:45:50.299Z,99276.19
2023-04-01T21:48:16.760Z,99288.19
2023-04-01T21:50:43.190Z,99285.03
2023-04-01T21:53:09.648Z,99288.12
2023-04-01T21:55:36.400Z,99291.03
2023-04-01T21:58:03.053Z,99290.81
2023-04-01T22:00:29.500Z,99292.31
2023-04-01T22:02:56.016Z,99301.47
2023-04-01T22:05:22.471Z,99294.78
2023-04-01T22:07:48.882Z,99296.78
2023-04-01T22:10:15.389Z,99303.47
2023-04-01T22:12:41.813Z,99302.28
2023-04-01T22:15:08.241Z,99312.16
2023-04-01T22:17:34.708Z,99308.59
2023-04-01T22:20:10.481Z,99309.41
2023-04-01T22:22:37.098Z,99302.41
2023-04-01T22:25:03.538Z,99316.75
2023-04-01T22:27:29.950Z,99321.00
2023-04-01T22:29:56.673Z,99321.50
2023-04-01T22:32:23.127Z,99321.69
2023-04-01T22:34:49.549Z,99329.34
2023-04-01T22:37:16.001Z,99336.00
2023-04-01T22:39:42.440Z,99334.41
2023-04-01T22:42:08.947Z,99336.00
2023-04-01T22:44:35.649Z,99352.28
2023-04-01T22:47:02.084Z,99349.38
2023-04-01T22:49:29.053Z,99359.19
2023-04-01T22:51:55.700Z,99355.81
2023-04-01T22:54:22.204Z,99360.72
2023-04-01T22:56:48.694Z,99365.84
2023-04-01T22:59:15.161Z,99367.91
2023-04-01T23:01:42.342Z,99368.81
2023-04-01T23:04:09.893Z,99367.66
2023-04-01T23:06:36.544Z,99376.00
2023-04-01T23:09:03.266Z,99381.13
2023-04-01T23:11:29.679Z,99386.09
2023-04-01T23:13:56.126Z,99395.81
2023-04-01T23:16:22.812Z,99393.44
2023-04-01T23:18:49.316Z,99397.69
2023-04-01T23:21:15.756Z,99402.06
2023-04-01T23:23:42.194Z,99391.59
2023-04-01T23:26:08.612Z,99403.72
2023-04-01T23:28:35.093Z,99411.34
2023-04-01T23:31:01.590Z,99406.41
2023-04-01T23:33:28.069Z,99411.03
2023-04-01T23:35:54.487Z,99420.97
2023-04-01T23:38:21.018Z,99429.84
2023-04-01T23:40:47.424Z,99435.03
2023-04-01T23:43:13.870Z,99425.31
2023-04-01T23:45:40.469Z,99443.19
2023-04-01T23:48:06.908Z,99438.25
2023-04-01T23:50:33.434Z,99442.28
2023-04-01T23:52:59.927Z,99447.34
2023-04-01T23:55:26.359Z,99451.22
2023-04-01T23:57:52.794Z,99457.84
